Time;durP1;ratioP1;P1;durP2;ratioP2;P2;SDS_P1;SDS_P2;PMS_P1;PMS_P2;Temp;Humidity;BMP_temperature;BMP_pressure;BME280_temperature;BME280_humidity;BME280_pressure;Samples;Min_cycle;Max_cycle;Signal;HPM_P1;HPM_P2
2023/07/31 00:01:10;;;;;;;2.85;2.25;;;;;;;13.19;100.00;98225.72;2613001;28;20057;-86
2023/07/31 00:02:26;;;;;;;3.53;2.00;;;;;;;13.14;100.00;98221.50;2613155;28;20045;-86
2023/07/31 00:03:41;;;;;;;5.07;1.98;;;;;;;13.16;100.00;98215.34;2613347;28;20060;-85
2023/07/31 00:04:57;;;;;;;3.58;2.10;;;;;;;13.00;100.00;98218.59;2613210;28;20095;-85
2023/07/31 00:06:13;;;;;;;3.15;2.28;;;;;;;12.99;100.00;98219.50;2613209;28;20068;-87
2023/07/31 00:07:28;;;;;;;7.80;2.33;;;;;;;12.95;100.00;98223.19;2613146;28;20048;-86
2023/07/31 00:08:44;;;;;;;3.20;2.10;;;;;;;12.96;100.00;98220.50;2613171;28;20041;-85
2023/07/31 00:09:59;;;;;;;2.78;1.98;;;;;;;13.03;100.00;98213.22;2612995;28;20067;-85
2023/07/31 00:11:15;;;;;;;6.55;2.38;;;;;;;13.06;100.00;98215.72;2613166;28;20056;-86
2023/07/31 00:12:31;;;;;;;3.13;2.08;;;;;;;13.05;100.00;98213.13;2613297;28;20041;-85
2023/07/31 00:13:46;;;;;;;3.10;2.55;;;;;;;13.00;100.00;98218.59;2613225;28;20045;-86
2023/07/31 00:15:02;;;;;;;4.32;2.30;;;;;;;13.10;100.00;98213.81;2612941;28;20075;-85
2023/07/31 00:16:18;;;;;;;4.30;2.00;;;;;;;13.13;100.00;98219.81;2613171;28;20489;-85
2023/07/31 00:17:33;;;;;;;3.28;2.30;;;;;;;13.17;100.00;98219.66;2613151;28;20091;-85
2023/07/31 00:18:49;;;;;;;2.92;2.22;;;;;;;13.12;100.00;98225.13;2613108;28;20468;-86
2023/07/31 00:20:05;;;;;;;3.67;2.10;;;;;;;13.17;100.00;98217.88;2612894;28;20065;-85
2023/07/31 00:21:20;;;;;;;6.63;2.47;;;;;;;13.15;100.00;98224.97;2613127;28;20405;-85
2023/07/31 00:22:36;;;;;;;2.22;1.85;;;;;;;12.96;100.00;98219.63;2613090;28;20099;-86
2023/07/31 00:23:51;;;;;;;2.47;2.10;;;;;;;12.74;100.00;98227.53;2613048;28;20044;-85
2023/07/31 00:25:07;;;;;;;11.48;2.53;;;;;;;12.78;100.00;98224.72;2601915;28;20041;-85
2023/07/31 00:26:23;;;;;;;3.60;2.10;;;;;;;12.81;100.00;98224.59;2606366;28;20061;-85
2023/07/31 00:27:38;;;;;;;2.63;2.25;;;;;;;12.78;100.00;98226.50;2613016;28;20045;-85
2023/07/31 00:28:53;;;;;;;3.33;2.05;;;;;;;12.70;100.00;98218.91;2613078;28;20045;-85
2023/07/31 00:30:10;;;;;;;2.95;2.10;;;;;;;12.68;100.00;98221.63;2601862;28;20064;-85
2023/07/31 00:31:26;;;;;;;4.65;2.58;;;;;;;12.72;100.00;98219.75;2606392;28;20504;-85
2023/07/31 00:32:41;;;;;;;4.05;2.10;;;;;;;12.65;100.00;98226.13;2613056;28;20045;-85
2023/07/31 00:33:57;;;;;;;4.70;2.00;;;;;;;12.63;100.00;98220.94;2612971;28;20045;-85
2023/07/31 00:35:13;;;;;;;4.38;2.38;;;;;;;12.70;100.00;98221.53;2612163;28;20098;-87
2023/07/31 00:36:28;;;;;;;4.97;2.30;;;;;;;12.76;100.00;98229.19;2612806;28;20048;-85
2023/07/31 00:37:44;;;;;;;5.75;2.42;;;;;;;13.00;100.00;98215.97;2612992;28;20045;-85
2023/07/31 00:38:59;;;;;;;6.35;2.38;;;;;;;13.06;100.00;98218.34;2613025;28;20040;-85
2023/07/31 00:40:15;;;;;;;3.85;2.47;;;;;;;13.02;100.00;98221.16;2601658;28;20052;-85
2023/07/31 00:41:30;;;;;;;3.53;2.30;;;;;;;12.92;100.00;98223.31;2606204;28;20048;-85
2023/07/31 00:42:46;;;;;;;5.13;2.63;;;;;;;12.96;100.00;98224.88;2612822;28;20483;-86
2023/07/31 00:44:01;;;;;;;4.20;2.60;;;;;;;13.05;100.00;98227.16;2612879;28;20079;-85
2023/07/31 00:45:17;;;;;;;4.55;2.20;;;;;;;12.81;100.00;98229.84;2612663;28;20037;-86
2023/07/31 00:46:32;;;;;;;7.50;3.95;;;;;;;12.78;100.00;98224.72;2612983;28;20052;-86
2023/07/31 00:47:48;;;;;;;8.20;2.40;;;;;;;12.93;100.00;98228.53;2612913;28;20041;-86
2023/07/31 00:49:05;;;;;;;2.97;1.95;;;;;;;12.82;100.00;98225.47;2612698;28;20041;-85
2023/07/31 00:50:24;;;;;;;4.75;2.25;;;;;;;12.90;100.00;98231.25;2601668;28;20125;-86
2023/07/31 00:51:39;;;;;;;4.60;2.35;;;;;;;13.04;100.00;98228.06;2606596;28;20045;-86
2023/07/31 00:52:55;;;;;;;3.55;2.22;;;;;;;13.05;100.00;98227.16;2612758;28;20041;-85
2023/07/31 00:54:11;;;;;;;8.57;2.42;;;;;;;13.09;100.00;98225.25;2612793;28;20045;-86
2023/07/31 00:55:26;;;;;;;3.40;2.20;;;;;;;13.17;100.00;98222.31;2612732;28;20045;-85
2023/07/31 00:56:45;;;;;;;5.28;2.28;;;;;;;13.15;100.00;98222.34;2612570;28;20041;-85
2023/07/31 00:58:00;;;;;;;7.28;2.38;;;;;;;13.31;100.00;98230.44;2612591;28;20140;-85
2023/07/31 00:59:18;;;;;;;3.22;1.95;;;;;;;13.31;100.00;98222.56;2601588;28;20509;-85
2023/07/31 01:00:33;;;;;;;3.88;2.20;;;;;;;13.35;100.00;98218.03;2605969;28;20056;-85
2023/07/31 01:01:49;;;;;;;4.15;1.80;;;;;;;13.33;100.00;98225.97;2612643;28;20045;-85
2023/07/31 01:03:05;;;;;;;4.30;1.80;;;;;;;13.13;100.00;98222.44;2612707;28;20049;-85
2023/07/31 01:04:21;;;;;;;3.80;1.83;;;;;;;13.09;100.00;98214.75;2612617;28;20444;-85
2023/07/31 01:05:49;;;;;;;4.78;2.20;;;;;;;12.99;100.00;98225.63;2612617;28;20045;-85
2023/07/31 01:07:04;;;;;;;3.08;2.22;;;;;;;12.84;100.00;98228.88;2612661;28;20053;-85
2023/07/31 01:08:44;;;;;;;3.47;1.95;;;;;;;12.77;100.00;98223.03;2601521;28;20045;-85
2023/07/31 01:10:10;;;;;;;2.92;1.85;;;;;;;12.78;100.00;98222.09;2609507;28;20574;-85
2023/07/31 01:11:33;;;;;;;3.90;2.00;;;;;;;12.65;100.00;98218.25;2612607;28;20041;-85
2023/07/31 01:12:51;;;;;;;3.83;2.38;;;;;;;12.76;100.00;98221.31;2612466;28;20180;-85
2023/07/31 01:14:07;;;;;;;5.47;2.90;;;;;;;12.88;100.00;98224.38;2612539;28;20064;-85
2023/07/31 01:15:22;;;;;;;3.85;2.22;;;;;;;12.87;100.00;98215.63;2612557;28;20457;-85
2023/07/31 01:16:38;;;;;;;2.67;2.00;;;;;;;12.76;100.00;98217.81;2612456;28;20033;-85
2023/07/31 01:17:53;;;;;;;5.25;2.30;;;;;;;12.80;100.00;98209.75;2612646;28;20044;-85
2023/07/31 01:19:11;;;;;;;4.97;2.25;;;;;;;12.80;100.00;98212.38;2612506;28;20065;-85
2023/07/31 01:20:28;;;;;;;6.65;2.30;;;;;;;13.02;100.00;98214.13;2612324;28;20045;-84
2023/07/31 01:22:23;;;;;;;3.17;2.45;;;;;;;13.10;100.00;98213.81;2612609;28;20071;-85
2023/07/31 01:24:00;;;;;;;4.72;2.30;;;;;;;13.05;100.00;98208.75;2611840;28;20167;-85
2023/07/31 01:25:28;;;;;;;6.95;2.15;;;;;;;12.93;100.00;98214.50;2601429;28;20042;-85
2023/07/31 01:26:47;;;;;;;3.75;2.50;;;;;;;12.97;100.00;98202.94;2607614;28;20506;-85
2023/07/31 01:28:07;;;;;;;3.35;2.00;;;;;;;13.07;100.00;98209.53;2612400;28;20142;-84
2023/07/31 01:29:33;;;;;;;4.38;2.40;;;;;;;13.06;100.00;98202.56;2601441;28;20057;-85
2023/07/31 01:30:49;;;;;;;3.42;2.40;;;;;;;12.98;100.00;98202.91;2607255;28;20049;-85
2023/07/31 01:32:07;;;;;;;5.70;2.13;;;;;;;13.04;100.00;98199.16;2612389;28;20040;-84
2023/07/31 01:33:23;;;;;;;4.70;2.47;;;;;;;13.27;100.00;98199.97;2612350;28;20247;-84
2023/07/31 01:34:40;;;;;;;3.95;2.40;;;;;;;13.18;100.00;98201.19;2612516;28;20505;-84
2023/07/31 01:35:56;;;;;;;5.70;2.40;;;;;;;13.07;100.00;98198.19;2612290;28;20128;-85
2023/07/31 01:37:12;;;;;;;5.07;2.13;;;;;;;12.89;100.00;98202.44;2612434;28;20412;-85
2023/07/31 01:38:28;;;;;;;3.83;2.33;;;;;;;12.91;100.00;98197.97;2601437;28;20041;-84
2023/07/31 01:39:43;;;;;;;3.83;2.25;;;;;;;12.83;100.00;98198.28;2605828;28;20060;-85
2023/07/31 01:40:59;;;;;;;4.45;2.55;;;;;;;12.76;100.00;98183.66;2612133;28;20052;-85
2023/07/31 01:42:14;;;;;;;4.03;2.38;;;;;;;12.98;100.00;98194.13;2612418;28;20049;-84
2023/07/31 01:43:30;;;;;;;3.00;2.13;;;;;;;12.99;100.00;98190.59;2612417;28;20095;-85
2023/07/31 01:44:46;;;;;;;4.50;2.15;;;;;;;13.05;100.00;98195.59;2612249;28;20075;-85
2023/07/31 01:46:01;;;;;;;4.47;2.38;;;;;;;12.79;100.00;98188.81;2612065;28;20539;-85
2023/07/31 01:47:17;;;;;;;5.57;2.50;;;;;;;12.85;100.00;98188.56;2612482;28;20045;-85
2023/07/31 01:48:36;;;;;;;4.97;2.55;;;;;;;12.81;100.00;98185.19;2612197;28;20071;-85
2023/07/31 01:49:52;;;;;;;3.50;2.17;;;;;;;12.95;100.00;98192.50;2612227;28;20049;-85
2023/07/31 01:51:07;;;;;;;2.42;2.10;;;;;;;12.77;100.00;98188.88;2612203;28;20125;-85
2023/07/31 01:52:23;;;;;;;2.65;2.00;;;;;;;12.69;100.00;98180.44;2612170;28;20045;-85
2023/07/31 01:53:39;;;;;;;2.60;1.92;;;;;;;12.87;100.00;98181.47;2612381;28;20052;-85
2023/07/31 01:54:54;;;;;;;6.97;2.78;;;;;;;12.93;100.00;98183.84;2612218;28;20041;-85
2023/07/31 01:56:10;;;;;;;5.20;2.22;;;;;;;12.82;100.00;98178.19;2612214;28;20167;-85
2023/07/31 01:57:25;;;;;;;3.28;2.38;;;;;;;12.89;100.00;98181.41;2612312;28;20040;-85
2023/07/31 01:58:41;;;;;;;3.50;2.33;;;;;;;12.95;100.00;98179.38;2612303;28;20048;-85
2023/07/31 01:59:56;;;;;;;8.00;2.50;;;;;;;12.99;100.00;98180.06;2612168;28;20041;-85
2023/07/31 02:01:12;;;;;;;3.63;2.45;;;;;;;12.92;100.00;98176.03;2612050;28;20519;-85
2023/07/31 02:02:28;;;;;;;5.35;2.30;;;;;;;12.85;100.00;98173.66;2601273;28;20056;-85
2023/07/31 02:03:43;;;;;;;4.63;2.10;;;;;;;12.96;100.00;98185.47;2605550;28;20053;-85
2023/07/31 02:04:59;;;;;;;5.28;2.42;;;;;;;12.93;100.00;98181.22;2612106;28;20049;-85
2023/07/31 02:06:14;;;;;;;4.88;2.17;;;;;;;12.95;100.00;98176.75;2612383;28;20412;-85
2023/07/31 02:07:30;;;;;;;7.60;2.08;;;;;;;12.94;100.00;98176.81;2612295;28;20037;-85
2023/07/31 02:08:45;;;;;;;5.03;2.03;;;;;;;12.91;100.00;98183.03;2612280;28;20070;-85
2023/07/31 02:10:01;;;;;;;5.95;2.25;;;;;;;12.85;100.00;98175.41;2612129;28;20465;-85
2023/07/31 02:11:17;;;;;;;4.88;2.00;;;;;;;12.68;100.00;98181.34;2601169;28;20043;-85
2023/07/31 02:12:33;;;;;;;4.30;2.20;;;;;;;12.62;100.00;98171.13;2605576;28;20049;-85
2023/07/31 02:13:49;;;;;;;4.18;2.30;;;;;;;12.69;100.00;98169.94;2612220;28;20044;-85
2023/07/31 02:15:05;;;;;;;6.78;2.50;;;;;;;12.70;100.00;98174.25;2612131;28;20124;-85
2023/07/31 02:16:20;;;;;;;3.65;2.33;;;;;;;12.70;100.00;98166.38;2612185;28;20045;-85
2023/07/31 02:17:36;;;;;;;4.97;2.28;;;;;;;12.64;100.00;98174.53;2600962;28;20409;-85
2023/07/31 02:18:51;;;;;;;4.03;2.30;;;;;;;12.65;100.00;98178.88;2605458;28;20485;-85
2023/07/31 02:20:07;;;;;;;3.90;2.53;;;;;;;12.68;100.00;98171.72;2601106;28;20491;-85
2023/07/31 02:21:23;;;;;;;4.60;2.60;;;;;;;12.71;100.00;98175.97;2605323;28;20053;-85
2023/07/31 02:22:38;;;;;;;7.03;2.50;;;;;;;12.75;100.00;98168.81;2612216;28;20049;-85
2023/07/31 02:23:54;;;;;;;3.60;2.50;;;;;;;12.59;100.00;98171.25;2612250;28;20049;-85
2023/07/31 02:25:09;;;;;;;5.15;2.80;;;;;;;12.70;100.00;98166.38;2612040;28;20072;-85
2023/07/31 02:26:25;;;;;;;3.92;2.45;;;;;;;12.75;100.00;98166.19;2612184;28;20079;-85
2023/07/31 02:27:41;;;;;;;4.20;2.10;;;;;;;12.75;100.00;98174.09;2612250;28;20052;-85
2023/07/31 02:28:56;;;;;;;3.63;2.63;;;;;;;12.71;100.00;98175.97;2612162;28;20449;-85
2023/07/31 02:30:12;;;;;;;7.32;2.78;;;;;;;12.71;100.00;98174.22;2611959;28;20147;-85
2023/07/31 02:31:27;;;;;;;4.97;2.10;;;;;;;12.61;100.00;98174.66;2612130;28;20045;-85
2023/07/31 02:32:43;;;;;;;5.00;2.47;;;;;;;12.71;100.00;98170.72;2612006;28;20408;-85
2023/07/31 02:33:58;;;;;;;6.28;2.20;;;;;;;12.74;100.00;98175.88;2612041;28;20048;-85
2023/07/31 02:35:15;;;;;;;3.85;2.00;;;;;;;12.71;100.00;98173.34;2611992;28;20055;-85
2023/07/31 02:36:30;;;;;;;2.90;2.25;;;;;;;12.63;100.00;98178.06;2612215;28;20041;-85
2023/07/31 02:37:46;;;;;;;3.60;2.17;;;;;;;12.56;100.00;98170.44;2612043;28;20075;-85
2023/07/31 02:39:01;;;;;;;4.03;2.65;;;;;;;12.55;100.00;98167.88;2612156;28;20056;-85
2023/07/31 02:40:17;;;;;;;3.90;2.45;;;;;;;12.67;100.00;98171.78;2612085;28;20455;-85
2023/07/31 02:41:33;;;;;;;4.60;2.70;;;;;;;12.62;100.00;98169.31;2612037;28;20049;-85
2023/07/31 02:42:48;;;;;;;4.43;2.65;;;;;;;12.61;100.00;98161.53;2612064;28;20041;-85
2023/07/31 02:44:04;;;;;;;3.72;2.80;;;;;;;12.67;100.00;98166.53;2612047;28;20056;-85
2023/07/31 02:45:19;;;;;;;4.38;2.30;;;;;;;12.50;100.00;98181.19;2612015;28;20072;-85
2023/07/31 02:46:35;;;;;;;7.00;2.67;;;;;;;12.52;100.00;98166.22;2611882;28;20488;-85
2023/07/31 02:47:50;;;;;;;7.05;2.42;;;;;;;12.31;100.00;98172.34;2601152;28;20473;-85
2023/07/31 02:49:06;;;;;;;7.40;2.10;;;;;;;12.28;100.00;98168.91;2605432;28;20042;-85
2023/07/31 02:50:22;;;;;;;8.82;2.40;;;;;;;12.48;100.00;98169.91;2611947;28;20167;-87
2023/07/31 02:51:37;;;;;;;4.45;2.10;;;;;;;12.42;100.00;98172.75;2611890;28;20443;-85
2023/07/31 02:52:52;;;;;;;5.43;2.17;;;;;;;12.49;100.00;98176.88;2611951;28;20041;-85
2023/07/31 02:54:08;;;;;;;3.63;2.13;;;;;;;12.55;100.00;98179.22;2612113;28;20073;-85
2023/07/31 02:55:24;;;;;;;4.28;2.38;;;;;;;12.73;100.00;98173.28;2611900;28;20049;-85
2023/07/31 02:56:39;;;;;;;3.85;2.25;;;;;;;12.76;100.00;98167.91;2612168;28;20053;-85
2023/07/31 02:57:55;;;;;;;5.30;2.20;;;;;;;12.83;100.00;98167.59;2612454;28;20408;-85
2023/07/31 02:59:10;;;;;;;3.65;2.17;;;;;;;12.59;100.00;98169.47;2602882;28;20072;-85
2023/07/31 03:00:26;;;;;;;5.10;2.40;;;;;;;12.74;100.00;98172.38;2607055;28;20068;-85
2023/07/31 03:01:41;;;;;;;7.88;2.35;;;;;;;12.60;100.00;98175.59;2613890;28;20048;-85
2023/07/31 03:02:57;;;;;;;3.70;2.67;;;;;;;12.50;100.00;98165.44;2602805;28;20049;-85
2023/07/31 03:04:12;;;;;;;3.70;2.45;;;;;;;12.43;100.00;98174.47;2607028;28;20045;-85
2023/07/31 03:05:28;;;;;;;5.13;2.60;;;;;;;12.77;100.00;98170.47;2613747;28;20518;-85
2023/07/31 03:06:44;;;;;;;6.75;2.90;;;;;;;12.85;100.00;98171.03;2613942;28;20064;-85
2023/07/31 03:07:59;;;;;;;4.60;2.60;;;;;;;12.97;100.00;98164.41;2613752;28;20048;-85
2023/07/31 03:09:15;;;;;;;13.88;4.47;;;;;;;13.07;100.00;98167.47;2613823;28;20045;-85
2023/07/31 03:10:30;;;;;;;5.47;2.42;;;;;;;13.02;100.00;98166.84;2602706;28;20045;-85
2023/07/31 03:11:46;;;;;;;4.22;2.40;;;;;;;13.08;100.00;98169.19;2606997;28;20040;-85
2023/07/31 03:13:01;;;;;;;6.72;2.70;;;;;;;13.00;100.00;98166.06;2613804;28;20041;-86
2023/07/31 03:14:17;;;;;;;5.75;2.47;;;;;;;13.00;100.00;98173.94;2613799;28;20107;-85
2023/07/31 03:15:33;;;;;;;4.22;2.58;;;;;;;12.81;100.00;98164.19;2602705;28;20241;-85
2023/07/31 03:16:48;;;;;;;3.25;2.45;;;;;;;12.97;100.00;98164.41;2607040;28;20042;-85
2023/07/31 03:18:04;;;;;;;5.00;2.80;;;;;;;12.83;100.00;98159.72;2613804;28;20053;-85
2023/07/31 03:19:19;;;;;;;5.53;2.40;;;;;;;12.82;100.00;98158.00;2613741;28;20057;-85
2023/07/31 03:20:35;;;;;;;8.73;2.50;;;;;;;12.76;100.00;98160.03;2613429;28;20051;-85
2023/07/31 03:21:50;;;;;;;6.22;2.53;;;;;;;12.83;100.00;98159.72;2613762;28;20081;-85
2023/07/31 03:23:06;;;;;;;4.72;2.53;;;;;;;12.89;100.00;98163.84;2613800;28;20049;-84
2023/07/31 03:24:21;;;;;;;4.28;2.30;;;;;;;12.70;100.00;98151.50;2602705;28;20045;-85
2023/07/31 03:25:37;;;;;;;7.07;2.80;;;;;;;12.77;100.00;98157.34;2606797;28;20403;-85
2023/07/31 03:26:53;;;;;;;7.07;2.47;;;;;;;12.92;100.00;98149.75;2613616;28;20072;-85
2023/07/31 03:28:08;;;;;;;6.15;2.90;;;;;;;12.92;100.00;98150.63;2613516;28;20539;-85
2023/07/31 03:29:23;;;;;;;3.05;2.20;;;;;;;13.04;100.00;98156.25;2613540;28;20495;-85
2023/07/31 03:30:39;;;;;;;2.90;2.05;;;;;;;12.87;100.00;98160.44;2613567;28;20120;-85
2023/07/31 03:31:55;;;;;;;6.05;1.92;;;;;;;12.84;100.00;98165.84;2613645;28;20041;-85
2023/07/31 03:33:10;;;;;;;4.97;2.30;;;;;;;12.78;100.00;98164.31;2602413;28;20416;-84
2023/07/31 03:34:26;;;;;;;4.07;2.22;;;;;;;12.91;100.00;98162.00;2596283;28;20508;-85
2023/07/31 03:35:41;;;;;;;5.88;2.25;;;;;;;13.02;100.00;98161.59;2606837;28;20044;-85
2023/07/31 03:36:58;;;;;;;3.80;2.22;;;;;;;13.17;100.00;98167.94;2613604;28;20041;-85
2023/07/31 03:38:13;;;;;;;3.72;2.25;;;;;;;13.16;100.00;98168.03;2613376;28;20052;-85
2023/07/31 03:39:29;;;;;;;6.57;2.58;;;;;;;13.24;100.00;98166.75;2613598;28;20076;-85
2023/07/31 03:40:44;;;;;;;5.88;2.60;;;;;;;13.26;100.00;98166.69;2613364;28;20116;-85
2023/07/31 03:42:00;;;;;;;4.28;2.28;;;;;;;13.35;100.00;98166.28;2613381;28;20044;-85
2023/07/31 03:43:15;;;;;;;4.38;2.25;;;;;;;13.45;100.00;98165.94;2613501;28;20045;-85
2023/07/31 03:44:31;;;;;;;3.35;2.00;;;;;;;13.38;100.00;98160.88;2613450;28;20532;-85
2023/07/31 03:45:47;;;;;;;3.60;2.00;;;;;;;13.38;100.00;98157.41;2613259;28;20045;-85
2023/07/31 03:47:02;;;;;;;2.72;2.10;;;;;;;13.44;100.00;98157.16;2613375;28;20048;-85
2023/07/31 03:48:18;;;;;;;3.97;2.42;;;;;;;13.19;100.00;98167.88;2613584;28;20520;-84
2023/07/31 03:49:33;;;;;;;5.50;2.60;;;;;;;13.30;100.00;98160.38;2602383;28;20053;-85
2023/07/31 03:50:49;;;;;;;4.63;2.05;;;;;;;13.30;100.00;98165.66;2606625;28;20114;-85
2023/07/31 03:52:05;;;;;;;5.28;2.15;;;;;;;13.13;100.00;98161.97;2613360;28;20041;-85
2023/07/31 03:53:20;;;;;;;4.78;3.47;;;;;;;13.11;100.00;98166.41;2602346;28;20049;-84
2023/07/31 03:54:36;;;;;;;4.15;2.75;;;;;;;13.13;100.00;98163.75;2606690;28;20048;-87
2023/07/31 03:55:51;;;;;;;3.05;2.30;;;;;;;13.24;100.00;98161.50;2613265;28;20037;-85
2023/07/31 03:57:07;;;;;;;8.57;2.95;;;;;;;13.27;100.00;98163.16;2613448;28;20045;-85
2023/07/31 03:58:22;;;;;;;4.90;2.55;;;;;;;13.22;100.00;98168.63;2613327;28;20045;-85
2023/07/31 03:59:39;;;;;;;4.38;2.45;;;;;;;13.25;100.00;98159.72;2613223;28;20041;-85
2023/07/31 04:00:54;;;;;;;4.90;2.47;;;;;;;13.13;100.00;98163.75;2613070;28;20057;-85
2023/07/31 04:02:10;;;;;;;2.78;2.20;;;;;;;13.09;100.00;98160.38;2613272;28;20048;-85
2023/07/31 04:03:25;;;;;;;4.18;2.53;;;;;;;13.18;100.00;98163.56;2613268;28;20045;-85
2023/07/31 04:04:41;;;;;;;2.70;2.35;;;;;;;13.11;100.00;98155.06;2613409;28;20056;-85
2023/07/31 04:05:56;;;;;;;7.03;2.50;;;;;;;13.09;100.00;98157.75;2613115;28;20052;-85
2023/07/31 04:07:12;;;;;;;3.30;2.17;;;;;;;13.10;100.00;98158.63;2613155;28;20691;-87
2023/07/31 04:08:28;;;;;;;4.45;2.70;;;;;;;13.24;100.00;98152.75;2613286;28;20049;-85
2023/07/31 04:09:43;;;;;;;4.78;2.53;;;;;;;13.17;100.00;98146.91;2613267;28;20060;-85
2023/07/31 04:10:59;;;;;;;9.63;2.60;;;;;;;13.16;100.00;98149.63;2613102;28;20041;-85
2023/07/31 04:12:14;;;;;;;2.95;2.42;;;;;;;13.21;100.00;98152.91;2613043;28;20049;-85
2023/07/31 04:13:30;;;;;;;5.13;2.28;;;;;;;13.25;100.00;98150.06;2613215;28;20484;-85
2023/07/31 04:14:45;;;;;;;2.95;2.28;;;;;;;13.27;100.00;98152.66;2613140;28;20120;-85
2023/07/31 04:16:01;;;;;;;6.35;2.10;;;;;;;13.26;100.00;98151.78;2612931;28;20496;-84
2023/07/31 04:17:19;;;;;;;5.97;2.10;;;;;;;13.27;100.00;98150.84;2613189;28;20048;-85
2023/07/31 04:18:35;;;;;;;4.78;2.45;;;;;;;13.23;100.00;98151.03;2602038;28;20448;-85
2023/07/31 04:19:51;;;;;;;4.70;2.35;;;;;;;13.25;100.00;98149.19;2606452;28;20049;-85
2023/07/31 04:21:06;;;;;;;4.50;2.42;;;;;;;13.16;100.00;98145.19;2613087;28;20049;-85
2023/07/31 04:22:22;;;;;;;6.65;2.22;;;;;;;13.13;100.00;98140.94;2613050;28;20080;-85
2023/07/31 04:23:38;;;;;;;4.43;2.28;;;;;;;12.97;100.00;98150.38;2612874;28;20149;-85
2023/07/31 04:24:53;;;;;;;7.32;2.45;;;;;;;13.11;100.00;98150.66;2613018;28;20045;-84
2023/07/31 04:26:09;;;;;;;4.45;2.60;;;;;;;12.97;100.00;98146.00;2612932;28;20480;-86
2023/07/31 04:27:24;;;;;;;3.25;2.15;;;;;;;12.97;100.00;98148.63;2612908;28;20045;-85
2023/07/31 04:28:40;;;;;;;3.83;2.47;;;;;;;13.07;100.00;98145.63;2612977;28;20124;-85
2023/07/31 04:29:56;;;;;;;3.03;2.40;;;;;;;12.97;100.00;98146.00;2613019;28;20056;-85
2023/07/31 04:31:11;;;;;;;8.60;2.97;;;;;;;13.04;100.00;98146.59;2613017;28;20049;-85
2023/07/31 04:32:27;;;;;;;3.45;2.42;;;;;;;13.01;100.00;98141.47;2612886;28;20041;-85
2023/07/31 04:33:42;;;;;;;5.22;2.70;;;;;;;13.10;100.00;98141.06;2612924;28;20049;-85
2023/07/31 04:34:58;;;;;;;3.13;2.40;;;;;;;13.15;100.00;98143.50;2613150;28;20053;-85
2023/07/31 04:36:13;;;;;;;3.90;2.50;;;;;;;13.18;100.00;98143.34;2612757;28;20053;-85
2023/07/31 04:37:29;;;;;;;3.70;2.58;;;;;;;13.22;100.00;98144.09;2601958;28;20477;-85
2023/07/31 04:38:44;;;;;;;2.75;2.40;;;;;;;13.31;100.00;98148.06;2606274;28;20099;-84
2023/07/31 04:40:00;;;;;;;6.65;3.08;;;;;;;13.23;100.00;98143.16;2612817;28;20095;-85
2023/07/31 04:41:15;;;;;;;6.15;2.67;;;;;;;13.22;100.00;98142.31;2612633;28;20056;-85
2023/07/31 04:42:31;;;;;;;8.13;2.92;;;;;;;13.30;100.00;98135.84;2602024;28;20505;-85
2023/07/31 04:43:47;;;;;;;5.30;2.60;;;;;;;13.27;100.00;98140.34;2606190;28;20119;-85
2023/07/31 04:45:02;;;;;;;6.07;2.72;;;;;;;13.27;100.00;98142.13;2612674;28;20045;-85
2023/07/31 04:46:18;;;;;;;4.85;2.90;;;;;;;13.32;100.00;98142.75;2612864;28;20496;-85
2023/07/31 04:47:33;;;;;;;7.45;3.10;;;;;;;13.36;100.00;98132.97;2612904;28;20075;-85
2023/07/31 04:48:49;;;;;;;5.75;2.63;;;;;;;13.39;100.00;98136.31;2612707;28;20120;-85
2023/07/31 04:50:05;;;;;;;5.75;2.95;;;;;;;13.39;100.00;98138.94;2612882;28;20052;-85
2023/07/31 04:51:21;;;;;;;4.65;2.88;;;;;;;13.56;100.00;98132.13;2612760;28;20071;-85
2023/07/31 04:52:36;;;;;;;3.60;2.67;;;;;;;13.62;100.00;98137.09;2601720;28;20723;-85
2023/07/31 04:53:52;;;;;;;6.78;3.17;;;;;;;13.77;100.00;98139.94;2606186;28;20037;-85
2023/07/31 04:55:08;;;;;;;5.55;2.80;;;;;;;13.71;100.00;98141.06;2612759;28;20098;-85
2023/07/31 04:56:24;;;;;;;5.57;2.92;;;;;;;13.72;100.00;98140.16;2612636;28;20503;-85
2023/07/31 04:57:39;;;;;;;3.80;2.80;;;;;;;13.73;100.00;98136.59;2612680;28;20037;-85
2023/07/31 04:58:55;;;;;;;5.68;2.75;;;;;;;13.76;100.00;98141.72;2612741;28;20048;-85
2023/07/31 05:00:10;;;;;;;4.95;2.58;;;;;;;13.77;100.00;98138.19;2612846;28;20045;-85
2023/07/31 05:01:26;;;;;;;6.93;2.67;;;;;;;13.96;100.00;98140.78;2612299;28;20119;-85
2023/07/31 05:02:42;;;;;;;5.05;2.83;;;;;;;14.03;100.00;98132.63;2612840;28;20044;-85
2023/07/31 05:03:57;;;;;;;9.02;2.83;;;;;;;14.04;100.00;98137.81;2612687;28;20049;-84
2023/07/31 05:05:13;;;;;;;7.95;2.63;;;;;;;14.09;100.00;98137.56;2612618;28;20154;-84
2023/07/31 05:06:28;;;;;;;6.53;2.85;;;;;;;14.18;100.00;98137.16;2612680;28;20045;-84
2023/07/31 05:07:44;;;;;;;4.68;2.70;;;;;;;14.17;100.00;98138.06;2612705;28;20045;-84
2023/07/31 05:08:59;;;;;;;5.80;2.60;;;;;;;14.13;100.00;98141.78;2612612;28;20067;-84
2023/07/31 05:10:15;;;;;;;2.85;2.58;;;;;;;14.22;100.00;98141.34;2612407;28;20048;-84
2023/07/31 05:11:31;;;;;;;3.53;2.58;;;;;;;14.25;100.00;98135.94;2612536;28;20032;-84
2023/07/31 05:12:46;;;;;;;4.45;3.00;;;;;;;14.34;100.00;98141.66;2612590;28;20120;-84
2023/07/31 05:14:02;;;;;;;4.43;2.78;;;;;;;14.28;100.00;98142.81;2612614;28;20049;-84
2023/07/31 05:15:17;;;;;;;4.20;2.90;;;;;;;14.51;100.00;98146.97;2612592;28;20049;-84
2023/07/31 05:16:33;;;;;;;4.47;2.42;;;;;;;14.56;100.00;98136.22;2601409;28;20056;-83
2023/07/31 05:17:48;;;;;;;5.18;2.50;;;;;;;14.64;100.00;98139.34;2605983;28;20053;-84
2023/07/31 05:19:04;;;;;;;5.38;2.70;;;;;;;14.73;100.00;98142.44;2612424;28;20045;-84
2023/07/31 05:20:20;;;;;;;3.45;2.53;;;;;;;14.90;100.00;98129.31;2612440;28;20488;-83
2023/07/31 05:21:36;;;;;;;3.45;2.75;;;;;;;15.06;100.00;98126.72;2611943;28;20045;-84
2023/07/31 05:22:52;;;;;;;3.08;2.63;;;;;;;15.09;100.00;98129.22;2612424;28;20044;-84
2023/07/31 05:24:07;;;;;;;4.45;2.83;;;;;;;15.13;100.00;98123.78;2612615;28;20530;-84
2023/07/31 05:25:23;;;;;;;3.78;2.47;;;;;;;15.23;100.00;98135.56;2612437;28;20041;-84
2023/07/31 05:26:38;;;;;;;3.42;2.42;;;;;;;15.17;100.00;98125.31;2612392;28;20049;-84
2023/07/31 05:27:54;;;;;;;9.50;2.78;;;;;;;15.12;100.00;98133.44;2612567;28;20091;-84
2023/07/31 05:29:09;;;;;;;6.18;2.80;;;;;;;15.24;100.00;98134.63;2612676;28;20064;-84
2023/07/31 05:30:26;;;;;;;5.75;2.15;;;;;;;15.37;100.00;98135.69;2612433;28;20069;-84
2023/07/31 05:31:41;;;;;;;4.10;2.55;;;;;;;15.50;100.00;98132.38;2612350;28;20587;-84
2023/07/31 05:32:57;;;;;;;14.88;3.13;;;;;;;15.49;100.00;98130.66;2612586;28;20045;-84
2023/07/31 05:34:13;;;;;;;4.75;2.35;;;;;;;15.55;100.00;98135.63;2612438;28;20049;-84
2023/07/31 05:35:28;;;;;;;2.55;2.35;;;;;;;15.60;100.00;98130.94;2612440;28;20045;-84
2023/07/31 05:36:44;;;;;;;6.43;2.80;;;;;;;15.58;100.00;98122.28;2612357;28;20049;-84
2023/07/31 05:37:59;;;;;;;4.40;2.40;;;;;;;15.55;100.00;98127.72;2612569;28;20049;-84
2023/07/31 05:39:15;;;;;;;5.38;2.97;;;;;;;15.71;100.00;98129.53;2612341;28;20049;-84
2023/07/31 05:40:33;;;;;;;6.00;2.70;;;;;;;15.89;100.00;98133.81;2612358;28;20045;-84
2023/07/31 05:41:48;;;;;;;3.28;2.17;;;;;;;15.87;100.00;98126.91;2612293;28;20499;-84
2023/07/31 05:43:06;;;;;;;5.70;2.45;;;;;;;15.92;100.00;98133.69;2612276;28;20107;-83
2023/07/31 05:44:21;;;;;;;6.47;2.50;;;;;;;15.90;100.00;98135.53;2601511;28;20045;-83
2023/07/31 05:45:37;;;;;;;5.40;2.78;;;;;;;16.03;100.00;98130.44;2605758;28;20382;-84
2023/07/31 05:46:53;;;;;;;3.28;2.20;;;;;;;16.01;100.00;98134.09;2612230;28;20037;-83
2023/07/31 05:48:08;;;;;;;5.57;2.67;;;;;;;16.00;100.00;98138.53;2612337;28;20118;-84
2023/07/31 05:49:24;;;;;;;4.28;2.50;;;;;;;15.98;100.00;98131.63;2612461;28;20049;-84
2023/07/31 05:50:39;;;;;;;5.30;2.80;;;;;;;16.09;100.00;98134.53;2612330;28;20052;-84
2023/07/31 05:51:55;;;;;;;4.97;2.72;;;;;;;16.13;100.00;98133.41;2612248;28;20072;-84
2023/07/31 05:53:11;;;;;;;3.67;2.30;;;;;;;16.13;100.00;98137.84;2612379;28;20119;-85
2023/07/31 05:54:26;;;;;;;5.93;2.30;;;;;;;16.16;100.00;98135.88;2612363;28;20071;-84